Latest Coastal Weather Observations for Innisfail Aero

IDQ60701

Issued at 8:52 am EST Sunday 23 February 2020 (issued every 10 minutes, with the page automatically refreshed every 10 minutes)

About coastal observations | Map of coastal stations | Coastal observations for QLD | Marine services | Other Formats
Station Details ID: 032197 Name: INNISFAIL AERODROME Lat: -17.56 Lon: 146.01 Height: 11.84 m
Data from the previous 72 hours. | See also: Recent months at Innisfail Aero
Date/Time
EST
Wind Sea
Height
m
Swell Vis
km
Cloud Weather Temp
°C
Press
hPa
Rain since
9am
mm
Dir  Spd
kts
Gust
kts
Height
m
Period
s
Dir
23/08:30am SSE 4 5 - - - - 10 Partly cloudy - 26.9 1009.8 53.8
23/08:00am S 4 5 - - - - 10 Partly cloudy - 25.8 1009.4 52.6
23/07:30am S 4 5 - - - - 10 Partly cloudy - 25.6 1009.1 51.2
23/07:00am SSW 4 5 - - - - 10 Partly cloudy - 25.0 1008.5 50.0
23/06:30am SSW 4 5 - - - - 10 Partly cloudy - 24.9 1008.1 48.6
23/06:00am NW 4 5 - - - - 10 Mostly cloudy Showers 24.9 1008.2 47.2
23/05:30am NNW 4 5 - - - - 10 Partly cloudy - 24.9 1008.1 46.0
23/05:28am NNW 4 5 - - - - 10 Partly cloudy - 24.9 1008.2 45.8
23/05:00am NW 6 8 - - - - 10 Partly cloudy - 25.0 1007.9 45.0
23/04:45am W 4 5 - - - - 10 Partly cloudy - 25.0 1007.7 44.8
23/04:30am W 7 8 - - - - 4 Partly cloudy - 25.0 1007.6 44.4
23/04:00am WSW 7 10 - - - - 4 Partly cloudy - 25.2 1007.8 43.8
23/03:41am W 4 6 - - - - 4 Partly cloudy - 25.2 1007.8 43.6
23/03:30am WSW 6 7 - - - - 7 Partly cloudy - 25.2 1007.6 43.4
23/03:17am WSW 6 7 - - - - 10 Partly cloudy - 25.2 1007.5 43.2
23/03:06am WSW 5 6 - - - - 4 Partly cloudy - 25.2 1007.6 43.0
23/03:00am WSW 4 6 - - - - 2 Cloudy Rain 25.2 1007.7 42.8
23/02:50am SW 3 5 - - - - 4 Partly cloudy - 25.2 1007.8 42.8
23/02:48am SW 3 5 - - - - 5 Partly cloudy - 25.2 1007.8 42.8
23/02:36am SW 6 8 - - - - 10 Partly cloudy - 25.2 1007.8 42.6
23/02:30am SSW 8 10 - - - - 10 Partly cloudy - 25.2 1007.8 42.4
23/02:17am S 6 9 - - - - 2 Partly cloudy - 25.3 1008.1 42.2
23/02:10am S 7 9 - - - - 5 Partly cloudy - 25.4 1008.2 42.2
23/02:00am SSW 8 10 - - - - 10 Partly cloudy - 25.5 1008.1 42.0
23/01:52am SSW 7 10 - - - - 10 Partly cloudy - 25.6 1008.1 42.0
23/01:30am SSE 7 11 - - - - 0.9 Partly cloudy - 25.6 1008.6 41.6
23/01:20am S 7 11 - - - - 5 Partly cloudy - 25.6 1008.7 41.6
23/01:11am SSW 6 8 - - - - 10 Partly cloudy - 25.9 1008.5 41.6
23/01:00am WSW 5 7 - - - - 10 Partly cloudy - 25.9 1008.7 41.4
23/12:33am SW 4 5 - - - - 10 Partly cloudy - 25.9 1009.3 41.2
23/12:30am SW 4 5 - - - - 10 Partly cloudy - 25.9 1009.3 41.2
23/12:17am SSW 3 5 - - - - 10 Partly cloudy - 25.9 1009.4 41.2
23/12:00am SW 4 5 - - - - 10 Cloudy Rain 25.8 1009.6 41.0
 
Date/Time
EST
Wind Sea
Height
m
Swell Vis
km
Cloud Weather Temp
°C
Press
hPa
Rain since
9am
mm
Dir  Spd
kts
Gust
kts
Height
m
Period
s
Dir
22/11:33pm SSW 6 8 - - - - 10 Partly cloudy - 25.9 1010.0 40.8
22/11:30pm SSW 6 7 - - - - 10 Partly cloudy - 25.9 1010.1 40.8
22/11:00pm WSW 3 5 - - - - 10 Cloudy - 25.8 1010.2 40.4
22/10:50pm SW 4 7 - - - - 10 Partly cloudy - 25.8 1010.1 40.2
22/10:32pm SSW 5 8 - - - - 3 Partly cloudy - 25.8 1009.8 40.0
22/10:31pm SSW 5 7 - - - - 3 Partly cloudy - 25.8 1009.8 40.0
22/10:30pm SSW 5 6 - - - - 5 Partly cloudy - 25.8 1009.9 40.0
22/10:12pm SSW 5 6 - - - - 10 Partly cloudy - 25.9 1009.6 39.6
22/10:00pm SW 5 6 - - - - 10 Partly cloudy - 25.8 1009.5 39.4
22/09:30pm SW 5 6 - - - - 10 Partly cloudy - 25.9 1009.4 38.4
22/09:00pm WSW 5 6 - - - - 10 Cloudy Showers 26.1 1009.3 37.0
22/08:46pm W 5 6 - - - - 10 Partly cloudy - 26.2 1009.4 35.4
22/08:30pm NNW 3 5 - - - - 10 Partly cloudy - 26.3 1009.3 32.8
22/08:00pm W 2 3 - - - - 10 Partly cloudy - 26.3 1008.9 27.0
22/07:47pm CALM 0 0 - - - - 10 Partly cloudy - 26.2 1008.7 25.6
22/07:46pm CALM 0 0 - - - - 10 Partly cloudy - 26.2 1008.7 25.4
22/07:33pm NNW 4 4 - - - - 10 Partly cloudy - 26.2 1008.7 23.8
22/07:30pm NW 3 4 - - - - 10 Partly cloudy - 26.2 1008.7 23.4
22/07:00pm NNE 5 6 - - - - 10 Partly cloudy - 26.0 1008.3 18.6
22/06:54pm NE 5 9 - - - - 10 Partly cloudy - 26.0 1008.3 17.4
22/06:30pm NE 8 18 - - - - 10 Partly cloudy - 26.7 1008.1 13.6
22/06:00pm NNE 3 5 - - - - 10 Cloudy Rain 27.3 1007.9 11.8
22/05:58pm NNE 4 5 - - - - 10 Partly cloudy - 27.2 1007.9 11.8
22/05:30pm NE 6 7 - - - - 10 Partly cloudy - 27.5 1007.8 11.2
22/05:14pm NE 5 7 - - - - 10 Partly cloudy - 27.9 1007.7 11.0
22/05:00pm E 4 6 - - - - 10 Partly cloudy - 27.9 1007.6 10.8
22/04:30pm N 1 4 - - - - 10 Partly cloudy - 27.7 1007.7 10.4
22/04:00pm NE 1 3 - - - - 7 Partly cloudy - 26.8 1007.8 9.8
22/03:46pm NNE 4 6 - - - - 10 Partly cloudy - 27.0 1007.8 9.6
22/03:31pm NE 5 7 - - - - 10 Partly cloudy - 27.2 1008.1 9.2
22/03:30pm NE 5 7 - - - - 10 Partly cloudy - 27.3 1008.0 9.2
22/03:00pm NE 7 10 - - - - 10 Cloudy Showers 27.4 1008.4 8.6
22/02:30pm ESE 5 7 - - - - 10 Partly cloudy - 27.0 1008.7 8.0
22/02:13pm SSE 4 6 - - - - 10 Partly cloudy - 26.2 1008.9 7.6
22/02:00pm SSE 5 7 - - - - 3 Partly cloudy - 25.6 1009.3 7.4
22/01:44pm SSW 3 5 - - - - 5 Partly cloudy - 25.7 1009.5 7.0
22/01:38pm WSW 5 6 - - - - 10 Partly cloudy - 25.8 1009.5 6.8
22/01:30pm WSW 5 6 - - - - 10 Partly cloudy - 25.8 1009.4 6.6
22/01:04pm WSW 4 6 - - - - 10 Partly cloudy - 25.4 1009.9 5.8
22/01:00pm SW 3 5 - - - - 10 Partly cloudy - 25.2 1010.0 5.6
22/12:30pm SW 3 4 - - - - 10 Partly cloudy - 24.8 1010.6 4.6
22/12:17pm SSW 4 5 - - - - 10 Partly cloudy - 24.7 1010.6 4.2
22/12:00pm SSW 4 5 - - - - 10 Cloudy Rain 24.8 1010.7 3.4
22/11:30am CALM 0 1 - - - - 10 Partly cloudy - 24.6 1011.1 2.2
22/11:12am WNW 3 5 - - - - 8 Partly cloudy - 24.5 1011.4 1.4
22/11:11am WNW 3 5 - - - - 7 Partly cloudy - 24.5 1011.4 1.4
22/11:00am SW 4 5 - - - - 5 Partly cloudy - 24.5 1011.4 0.8
22/10:30am N 10 14 - - - - 4 Partly cloudy - 24.9 1011.8 0.0
22/10:28am NNW 10 14 - - - - 5 Partly cloudy - 24.9 1011.6 0.0
22/10:01am NNW 8 11 - - - - 10 Partly cloudy - 26.0 1011.1 0.0
22/10:00am NNW 8 11 - - - - 10 Partly cloudy - 26.1 1011.0 0.0
22/09:30am W 3 3 - - - - 10 Partly cloudy - 26.9 1011.1 0.0
22/09:00am WNW 3 4 - - - - 10 Cloudy Rain 27.0 1010.6 4.0
22/08:30am W 3 3 - - - - 10 Partly cloudy - 27.5 1010.2 3.8
22/08:00am W 1 4 - - - - 10 Partly cloudy - 26.7 1009.8 3.8
22/07:30am WNW 4 5 - - - - 10 Partly cloudy - 25.5 1009.3 3.8
22/07:08am WNW 5 6 - - - - 10 Partly cloudy - 25.0 1009.1 3.8
22/07:00am NW 4 6 - - - - 10 Partly cloudy - 25.0 1009.1 3.8
22/06:39am NNW 5 6 - - - - 10 Partly cloudy - 24.8 1009.2 3.8
22/06:30am NNW 3 6 - - - - 10 Partly cloudy - 24.9 1009.0 3.8
22/06:00am CALM 0 3 - - - - 10 Cloudy Showers 24.8 1008.6 3.8
22/05:30am NW 3 5 - - - - 10 Partly cloudy - 24.7 1008.3 3.8
22/05:00am N 4 5 - - - - 10 Partly cloudy - 24.6 1008.2 3.8
22/04:30am CALM 0 0 - - - - 10 Partly cloudy - 24.7 1007.9 3.8
22/04:00am NNW 3 4 - - - - 10 - - 24.5 1008.1 3.6
22/03:30am CALM 0 0 - - - - 10 - - 24.4 1007.8 3.6
22/03:22am NW 1 4 - - - - 10 Partly cloudy - 24.4 1007.8 3.6
22/03:00am NNW 2 5 - - - - 2 Partly cloudy - 24.2 1008.0 3.6
22/02:57am NNW 1 5 - - - - 5 Partly cloudy - 24.3 1008.0 3.6
22/02:30am SW 2 3 - - - - 10 Partly cloudy - 24.7 1008.5 3.6
22/02:00am NNW 4 4 - - - - 10 Partly cloudy - 24.6 1008.9 3.6
22/01:30am CALM 0 0 - - - - 10 Partly cloudy - 24.7 1009.3 3.6
22/01:00am SW 2 3 - - - - 10 Partly cloudy - 24.9 1009.7 3.6
22/12:30am WSW 3 6 - - - - 10 Partly cloudy - 25.1 1010.2 3.4
22/12:00am SW 5 7 - - - - 10 Partly cloudy Showers 25.1 1010.5 3.4
 
Date/Time
EST
Wind Sea
Height
m
Swell Vis
km
Cloud Weather Temp
°C
Press
hPa
Rain since
9am
mm
Dir  Spd
kts
Gust
kts
Height
m
Period
s
Dir
21/11:30pm ENE 3 7 - - - - 10 Partly cloudy - 25.3 1011.1 3.4
21/11:00pm WSW 4 5 - - - - 10 Partly cloudy - 25.4 1010.8 3.4
21/10:30pm W 1 3 - - - - 10 Partly cloudy - 25.3 1010.7 3.4
21/10:21pm NW 4 6 - - - - 10 Partly cloudy - 25.4 1010.8 3.2
21/10:05pm E 4 8 - - - - 5 Partly cloudy - 25.5 1010.8 3.2
21/10:00pm E 8 11 - - - - 10 Partly cloudy - 25.6 1011.1 3.2
21/09:30pm SSE 3 6 - - - - 10 Partly cloudy - 26.4 1010.4 3.2
21/09:00pm SW 6 8 - - - - 9 Partly cloudy Rain 26.3 1009.8 3.2
21/08:30pm SW 2 4 - - - - 10 Partly cloudy - 26.8 1009.6 3.2
21/08:00pm NNW 3 3 - - - - 10 Partly cloudy - 26.5 1009.3 3.0
21/07:30pm NW 3 4 - - - - 10 Partly cloudy - 26.9 1008.7 3.0
21/07:00pm NNW 4 4 - - - - 10 Partly cloudy - 26.7 1008.3 3.0
21/06:30pm N 3 4 - - - - 10 Partly cloudy - 27.2 1007.6 3.0
21/06:00pm NNW 4 6 - - - - 10 Cloudy - 27.6 1007.2 2.8
21/05:30pm NNW 7 9 - - - - 10 Partly cloudy - 27.9 1007.1 2.8
21/05:00pm ENE 6 7 - - - - 10 Partly cloudy - 30.0 1007.0 2.8
21/04:30pm ENE 7 9 - - - - 10 - - 29.8 1006.9 2.6
21/04:00pm E 6 8 - - - - 10 - - 30.0 1007.1 2.6
21/03:30pm E 9 11 - - - - 10 - - 30.1 1007.1 2.6
21/03:00pm E 8 10 - - - - 10 Mostly clear Recent precip. 30.3 1007.3 2.4
21/02:30pm ENE 9 12 - - - - 10 - - 30.2 1007.5 2.4
21/02:00pm NE 7 11 - - - - 10 Partly cloudy - 29.5 1007.4 2.2
21/01:30pm NNE 12 17 - - - - 10 Partly cloudy - 31.6 1007.6 2.2
21/01:00pm NE 12 16 - - - - 10 Partly cloudy - 30.7 1008.1 2.0
21/12:30pm ENE 11 15 - - - - 10 - - 31.8 1008.3 1.8
21/12:00pm ENE 11 15 - - - - 10 Mostly cloudy Rain 32.0 1008.6 1.8
21/11:30am ENE 9 13 - - - - 10 Partly cloudy - 31.0 1008.8 1.6
21/11:00am ENE 6 10 - - - - 10 Partly cloudy - 32.0 1008.9 1.4
21/10:41am NE 7 11 - - - - 10 Partly cloudy - 32.0 1009.1 1.0
21/10:30am E 7 13 - - - - 10 Partly cloudy - 31.0 1009.2 0.8
21/10:14am NNE 4 6 - - - - 10 Partly cloudy - 31.6 1009.4 0.6
21/10:00am NNE 2 5 - - - - 10 Partly cloudy - 31.4 1009.5 0.6
21/09:30am WNW 3 5 - - - - 10 Partly cloudy - 29.8 1009.6 0.2
21/09:00am WSW 1 3 - - - - 10 Mostly clear Rain 29.0 1009.2 2.6
21/08:30am N 1 4 - - - - 10 Partly cloudy - 26.4 1009.0 2.4
21/08:01am S 1 3 - - - - 2 Partly cloudy - 26.0 1008.7 2.0
21/08:00am S 2 3 - - - - 10 Partly cloudy - 26.0 1008.7 2.0
21/07:30am WNW 3 4 - - - - 10 Partly cloudy - 25.6 1008.2 1.8
21/07:00am W 4 5 - - - - 10 Partly cloudy - 25.4 1007.9 1.4
21/06:45am W 4 6 - - - - 10 Partly cloudy - 25.3 1008.0 1.2
21/06:33am WNW 4 6 - - - - 3 Partly cloudy - 25.3 1007.9 0.8
21/06:30am NNW 4 6 - - - - 2 Partly cloudy - 25.4 1007.9 0.8
21/06:14am NNE 8 10 - - - - 5 Partly cloudy - 25.2 1007.8 0.2
21/06:02am NE 6 9 - - - - 10 Partly cloudy - 25.1 1007.9 0.0
21/06:00am NE 5 9 - - - - 10 Cloudy Rain 25.0 1007.8 0.0
21/05:30am W 4 4 - - - - 10 Partly cloudy - 25.0 1007.1 0.0
21/05:00am WNW 2 5 - - - - 10 Partly cloudy - 25.0 1007.0 0.0
21/04:30am CALM 0 0 - - - - 10 Partly cloudy - 24.4 1006.9 0.0
21/04:00am CALM 0 4 - - - - 10 - - 24.9 1006.6 0.0
21/03:30am CALM 0 0 - - - - 10 - - 24.9 1006.8 0.0
21/03:00am W 3 4 - - - - 10 - - 25.4 1006.8 0.0
21/02:30am W 3 5 - - - - 10 - - 25.3 1007.1 0.0
21/02:00am N 3 4 - - - - 10 - - 25.1 1007.2 0.0
21/01:30am NNW 4 4 - - - - 10 - - 25.3 1007.5 0.0
21/01:00am NNW 3 4 - - - - 10 - - 25.3 1008.2 0.0
21/12:30am N 4 5 - - - - 10 - - 25.4 1008.5 0.0
21/12:00am NNW 1 3 - - - - 10 Partly cloudy - 25.9 1008.9 0.0
 
Date/Time
EST
Wind Sea
Height
m
Swell Vis
km
Cloud Weather Temp
°C
Press
hPa
Rain since
9am
mm
Dir  Spd
kts
Gust
kts
Height
m
Period
s
Dir
20/11:30pm NW 4 5 - - - - 10 - - 26.3 1009.3 0.0
20/11:00pm SW 5 6 - - - - 10 Partly cloudy - 26.7 1009.3 0.0
20/10:30pm WSW 5 6 - - - - 10 Partly cloudy - 26.7 1009.1 0.0
20/10:00pm SW 5 6 - - - - 10 - - 26.8 1008.6 0.0
20/09:30pm SW 4 5 - - - - 10 - - 27.0 1008.2 0.0
20/09:00pm W 4 5 - - - - 10 - - 27.1 1008.0 0.0
20/08:30pm W 2 4 - - - - 10 - - 27.1 1007.6 0.0
20/08:00pm NNW 2 3 - - - - 10 - - 27.2 1007.2 0.0
20/07:30pm NNW 5 6 - - - - 10 - - 27.2 1006.5 0.0
20/07:00pm N 4 5 - - - - 10 - - 27.9 1006.5 0.0
20/06:30pm NNE 5 6 - - - - 10 - - 28.8 1006.2 0.0
20/06:00pm NE 7 8 - - - - 10 - - 29.5 1005.8 0.0
20/05:30pm NE 7 10 - - - - 10 - - 30.0 1005.6 0.0
20/05:00pm NE 11 14 - - - - 10 - - 31.4 1005.0 0.0
20/04:30pm NE 10 15 - - - - 10 - - 32.5 1004.7 0.0
20/04:00pm NE 11 15 - - - - 10 - - 32.8 1004.6 0.0
20/03:30pm NE 11 14 - - - - 10 - - 33.2 1004.6 0.0
20/03:00pm ENE 11 15 - - - - 10 - - 33.1 1004.6 0.0
20/02:30pm NE 11 14 - - - - 10 - - 33.5 1005.0 0.0
20/02:00pm NE 10 14 - - - - 10 - - 33.8 1005.2 0.0
20/01:30pm NE 10 13 - - - - 10 - - 33.8 1005.4 0.0
20/01:00pm ENE 10 13 - - - - 10 - - 33.5 1005.9 0.0
20/12:30pm ENE 7 10 - - - - 10 - - 33.3 1006.3 0.0
20/12:00pm ENE 7 11 - - - - 10 Mostly clear - 33.3 1006.7 0.0
20/11:30am NE 6 10 - - - - 10 Partly cloudy - 32.8 1007.2 0.0
20/11:00am W 2 4 - - - - 10 Partly cloudy - 31.9 1007.4 0.0
20/10:30am ENE 5 8 - - - - 10 Partly cloudy - 32.5 1007.5 0.0
20/10:00am N 5 8 - - - - 10 - - 31.3 1007.7 0.0
20/09:30am N 4 6 - - - - 10 - - 31.1 1008.0 0.0
20/09:00am NW 1 3 - - - - 10 - - 30.6 1007.7 0.0

Other formats

Comma delimited format used in spreadsheet applications
http://www.bom.gov.au/fwo/IDQ60701/IDQ60701.94280.axf

JavaScript Object Notation format (JSON) in row-major order
http://www.bom.gov.au/fwo/IDQ60701/IDQ60701.94280.json

Data quality

Most of these data are generated automatically and are frequently updated. Quality checks on data are not normally performed. It is possible for incorrect values to appear. Refer to information at About Latest Weather Observations and please check the disclaimer before using these data.